createdAt,value
2023-04-08T00:00:47.737Z,-2.60
2023-04-08T00:03:14.693Z,-2.74
2023-04-08T00:05:41.642Z,-2.75
2023-04-08T00:08:08.433Z,-2.66
2023-04-08T00:10:35.069Z,-2.66
2023-04-08T00:13:03.247Z,-2.77
2023-04-08T00:15:31.144Z,-2.58
2023-04-08T00:17:57.794Z,-2.80
2023-04-08T00:20:25.316Z,-2.98
2023-04-08T00:22:53.422Z,-2.87
2023-04-08T00:25:20.293Z,-2.94
2023-04-08T00:27:48.145Z,-3.22
2023-04-08T00:30:15.631Z,-3.09
2023-04-08T00:32:42.358Z,-2.83
2023-04-08T00:35:09.288Z,-2.97
2023-04-08T00:37:35.986Z,-3.06
2023-04-08T00:40:02.591Z,-2.97
2023-04-08T00:42:32.112Z,-3.17
2023-04-08T00:44:58.786Z,-3.43
2023-04-08T00:47:25.979Z,-3.41
2023-04-08T00:49:52.628Z,-3.14
2023-04-08T00:52:19.255Z,-2.98
2023-04-08T00:54:46.276Z,-3.17
2023-04-08T00:57:14.677Z,-3.40
2023-04-08T00:59:41.777Z,-3.36
2023-04-08T01:02:31.129Z,-3.15
2023-04-08T01:05:15.828Z,-3.07
2023-04-08T01:07:48.189Z,-3.40
2023-04-08T01:10:22.254Z,-3.67
2023-04-08T01:12:53.769Z,-3.71
2023-04-08T01:15:20.960Z,-3.50
2023-04-08T01:17:50.467Z,-3.50
2023-04-08T01:20:17.734Z,-3.64
2023-04-08T01:23:10.286Z,-3.44
2023-04-08T01:25:39.427Z,-3.42
2023-04-08T01:28:10.184Z,-3.23
2023-04-08T01:30:41.976Z,-3.04
2023-04-08T01:33:12.075Z,-3.07
2023-04-08T01:35:39.154Z,-3.22
2023-04-08T01:38:08.779Z,-3.38
2023-04-08T01:40:38.149Z,-3.27
2023-04-08T01:43:07.836Z,-3.59
2023-04-08T01:45:34.493Z,-3.57
2023-04-08T01:48:01.788Z,-3.52
2023-04-08T01:50:30.675Z,-3.64
2023-04-08T01:53:00.337Z,-3.67
2023-04-08T01:55:28.895Z,-3.44
2023-04-08T01:58:01.004Z,-3.29
2023-04-08T02:00:31.135Z,-3.52
2023-04-08T02:03:00.299Z,-3.50
2023-04-08T02:05:27.082Z,-3.35
2023-04-08T02:07:53.724Z,-3.47
2023-04-08T02:10:21.629Z,-3.82
2023-04-08T02:12:48.379Z,-3.71
2023-04-08T02:15:15.796Z,-3.49
2023-04-08T02:17:47.474Z,-3.96
2023-04-08T02:20:32.768Z,-4.13
2023-04-08T02:23:04.073Z,-3.80
2023-04-08T02:25:32.148Z,-3.50
2023-04-08T02:28:03.048Z,-3.79
2023-04-08T02:30:31.376Z,-4.04
2023-04-08T02:32:58.992Z,-4.05
2023-04-08T02:35:28.061Z,-4.12
2023-04-08T02:37:55.186Z,-4.23
2023-04-08T02:40:30.397Z,-4.15
2023-04-08T02:42:58.057Z,-4.20
2023-04-08T02:45:33.383Z,-4.06
2023-04-08T02:48:02.781Z,-3.94
2023-04-08T02:50:29.495Z,-3.68
2023-04-08T02:52:57.399Z,-3.87
2023-04-08T02:55:24.036Z,-4.34
2023-04-08T02:57:52.157Z,-4.47
2023-04-08T03:00:18.778Z,-4.36
2023-04-08T03:02:46.759Z,-4.41
2023-04-08T03:05:13.586Z,-4.54
2023-04-08T03:07:40.369Z,-4.49
2023-04-08T03:10:07.686Z,-4.13
2023-04-08T03:12:35.650Z,-3.93
2023-04-08T03:15:03.554Z,-4.14
2023-04-08T03:17:35.117Z,-4.23
2023-04-08T03:20:06.223Z,-4.12
2023-04-08T03:22:33.620Z,-4.07
2023-04-08T03:25:01.765Z,-4.14
2023-04-08T03:27:28.589Z,-4.07
2023-04-08T03:29:56.579Z,-3.98
2023-04-08T03:32:23.376Z,-3.72
2023-04-08T03:34:52.808Z,-3.81
2023-04-08T03:37:19.508Z,-4.13
2023-04-08T03:39:46.597Z,-4.30
2023-04-08T03:42:13.284Z,-4.03
2023-04-08T03:44:39.979Z,-4.16
2023-04-08T03:47:06.570Z,-4.33
2023-04-08T03:49:33.153Z,-4.37
2023-04-08T03:52:01.015Z,-4.65
2023-04-08T03:54:29.082Z,-4.79
2023-04-08T03:56:55.888Z,-4.78
2023-04-08T03:59:23.075Z,-4.46
2023-04-08T04:01:51.486Z,-4.23
2023-04-08T04:04:19.130Z,-4.22
2023-04-08T04:06:46.043Z,-4.44
2023-04-08T04:09:14.040Z,-4.78
2023-04-08T04:11:40.746Z,-4.89
2023-04-08T04:14:07.422Z,-4.80
2023-04-08T04:16:34.098Z,-4.76
2023-04-08T04:19:00.920Z,-4.77
2023-04-08T04:21:27.736Z,-4.50
2023-04-08T04:23:55.901Z,-4.50
2023-04-08T04:26:22.606Z,-4.52
2023-04-08T04:28:50.816Z,-4.39
2023-04-08T04:31:27.496Z,-4.36
2023-04-08T04:33:54.896Z,-4.63
2023-04-08T04:36:21.558Z,-4.77
2023-04-08T04:38:50.501Z,-4.67
2023-04-08T04:41:17.830Z,-4.52
2023-04-08T04:43:44.462Z,-4.70
2023-04-08T04:46:11.229Z,-4.66
2023-04-08T04:48:37.917Z,-4.44
2023-04-08T04:51:04.688Z,-4.22
2023-04-08T04:53:33.052Z,-4.25
2023-04-08T04:56:01.855Z,-4.40
2023-04-08T04:58:30.692Z,-4.55
2023-04-08T05:00:57.585Z,-4.43
2023-04-08T05:03:24.783Z,-4.14
2023-04-08T05:05:55.056Z,-4.26
2023-04-08T05:08:22.214Z,-4.13
2023-04-08T05:10:50.830Z,-3.86
2023-04-08T05:13:20.161Z,-3.91
2023-04-08T05:15:46.853Z,-4.08
2023-04-08T05:18:13.827Z,-3.84
2023-04-08T05:20:40.565Z,-3.55
2023-04-08T05:23:07.821Z,-3.43
2023-04-08T05:25:34.536Z,-3.28
2023-04-08T05:28:02.505Z,-3.11
2023-04-08T05:30:29.182Z,-3.05
2023-04-08T05:32:59.910Z,-3.00
2023-04-08T05:35:27.210Z,-2.82
2023-04-08T05:37:54.070Z,-2.67
2023-04-08T05:40:20.720Z,-2.68
2023-04-08T05:42:47.317Z,-2.67
2023-04-08T05:45:15.878Z,-2.47
2023-04-08T05:47:42.496Z,-2.46
2023-04-08T05:50:09.611Z,-2.49
2023-04-08T05:52:36.467Z,-2.44
2023-04-08T05:55:03.140Z,-2.29
2023-04-08T05:57:29.728Z,-2.36
2023-04-08T05:59:56.426Z,-2.37
2023-04-08T06:02:24.009Z,-2.23
2023-04-08T06:04:51.025Z,-2.13
2023-04-08T06:07:17.821Z,-2.17
2023-04-08T06:09:45.344Z,-2.14
2023-04-08T06:12:12.102Z,-1.95
2023-04-08T06:14:38.730Z,-1.98
2023-04-08T06:17:05.424Z,-1.92
2023-04-08T06:19:32.282Z,-1.73
2023-04-08T06:21:59.400Z,-1.63
2023-04-08T06:24:30.885Z,-1.76
2023-04-08T06:26:58.587Z,-1.81
2023-04-08T06:29:25.174Z,-1.63
2023-04-08T06:31:51.816Z,-1.69
2023-04-08T06:34:18.492Z,-1.64
2023-04-08T06:36:45.232Z,-1.50
2023-04-08T06:39:13.031Z,-1.37
2023-04-08T06:41:39.623Z,-1.44
2023-04-08T06:44:06.240Z,-1.44
2023-04-08T06:46:32.954Z,-1.43
2023-04-08T06:48:59.754Z,-1.39
2023-04-08T06:51:27.968Z,-1.37
2023-04-08T06:53:54.623Z,-1.36
2023-04-08T06:56:22.644Z,-1.31
2023-04-08T06:58:49.645Z,-1.21
2023-04-08T07:01:16.663Z,-0.94
2023-04-08T07:03:43.990Z,-0.77
2023-04-08T07:06:11.145Z,-0.68
2023-04-08T07:08:37.809Z,-0.39
2023-04-08T07:11:05.343Z,-0.35
2023-04-08T07:13:31.994Z,-0.17
2023-04-08T07:15:58.601Z,0.16
2023-04-08T07:18:26.368Z,0.22
2023-04-08T07:20:54.104Z,0.45
2023-04-08T07:23:21.130Z,0.67
2023-04-08T07:25:48.285Z,0.81
2023-04-08T07:28:16.477Z,1.16
2023-04-08T07:30:43.115Z,1.49
2023-04-08T07:33:11.330Z,1.65
2023-04-08T07:35:39.542Z,1.85
2023-04-08T07:38:11.426Z,2.03
2023-04-08T07:40:38.118Z,2.09
2023-04-08T07:43:04.727Z,2.05
2023-04-08T07:45:31.378Z,2.29
2023-04-08T07:47:58.023Z,2.59
2023-04-08T07:50:24.710Z,2.61
2023-04-08T07:52:53.386Z,2.78
2023-04-08T07:55:20.321Z,2.95
2023-04-08T07:57:47.268Z,2.91
2023-04-08T08:00:22.125Z,2.78
2023-04-08T08:02:49.798Z,2.99
2023-04-08T08:05:16.646Z,3.09
2023-04-08T08:07:43.306Z,3.18
2023-04-08T08:10:11.113Z,3.38
2023-04-08T08:12:38.890Z,3.53
2023-04-08T08:15:06.093Z,3.57
2023-04-08T08:17:33.844Z,3.75
2023-04-08T08:20:01.264Z,4.04
2023-04-08T08:22:27.893Z,4.15
2023-04-08T08:24:58.117Z,4.45
2023-04-08T08:27:25.095Z,4.65
2023-04-08T08:29:52.718Z,4.51
2023-04-08T08:32:19.423Z,4.61
2023-04-08T08:34:46.095Z,4.62
2023-04-08T08:37:14.119Z,4.57
2023-04-08T08:39:41.067Z,4.78
2023-04-08T08:42:08.920Z,4.76
2023-04-08T08:44:36.086Z,4.88
2023-04-08T08:47:02.729Z,5.14
2023-04-08T08:49:29.443Z,5.01
2023-04-08T08:51:57.234Z,4.88
2023-04-08T08:54:23.854Z,5.18
2023-04-08T08:56:50.623Z,5.52
2023-04-08T08:59:17.262Z,5.56
2023-04-08T09:01:45.104Z,5.79
2023-04-08T09:04:20.351Z,5.74
2023-04-08T09:06:50.261Z,5.69
2023-04-08T09:09:17.680Z,6.04
2023-04-08T09:11:47.777Z,6.22
2023-04-08T09:14:18.256Z,6.35
2023-04-08T09:16:46.612Z,6.49
2023-04-08T09:19:13.504Z,6.38
2023-04-08T09:21:43.753Z,6.70
2023-04-08T09:24:28.010Z,6.73
2023-04-08T09:26:54.637Z,6.86
2023-04-08T09:29:26.260Z,6.90
2023-04-08T09:31:59.920Z,7.05
2023-04-08T09:34:29.069Z,7.29
2023-04-08T09:36:57.785Z,7.47
2023-04-08T09:39:24.560Z,7.67
2023-04-08T09:41:52.806Z,7.59
2023-04-08T09:44:23.110Z,7.64
2023-04-08T09:46:49.768Z,7.71
2023-04-08T09:49:27.079Z,7.42
2023-04-08T09:52:01.066Z,7.65
2023-04-08T09:54:37.185Z,7.49
2023-04-08T09:57:13.778Z,7.72
2023-04-08T09:59:50.394Z,7.65
2023-04-08T10:02:23.591Z,7.75
2023-04-08T10:04:54.051Z,7.87
2023-04-08T10:07:21.051Z,7.81
2023-04-08T10:09:48.063Z,8.10
2023-04-08T10:12:14.901Z,7.85
2023-04-08T10:14:41.682Z,7.99
2023-04-08T10:17:35.801Z,8.02
2023-04-08T10:20:02.572Z,7.80
2023-04-08T10:22:29.129Z,8.06
2023-04-08T10:25:33.311Z,8.07
2023-04-08T10:28:20.193Z,8.41
2023-04-08T10:30:48.347Z,8.32
2023-04-08T10:33:30.246Z,8.59
2023-04-08T10:36:02.143Z,8.57
2023-04-08T10:38:28.802Z,8.70
2023-04-08T10:40:55.689Z,8.75
2023-04-08T10:43:22.285Z,8.66
2023-04-08T10:45:51.606Z,8.90
2023-04-08T10:48:19.439Z,8.64
2023-04-08T10:50:59.640Z,8.69
2023-04-08T10:53:29.200Z,8.68
2023-04-08T10:56:13.264Z,8.65
2023-04-08T10:58:54.205Z,8.87
2023-04-08T11:01:21.396Z,8.64
2023-04-08T11:03:49.802Z,8.87
2023-04-08T11:06:17.820Z,8.75
2023-04-08T11:08:44.894Z,8.94
2023-04-08T11:11:12.902Z,9.11
2023-04-08T11:13:51.588Z,9.02
2023-04-08T11:16:20.928Z,9.27
2023-04-08T11:18:48.156Z,9.14
2023-04-08T11:21:16.666Z,9.28
2023-04-08T11:23:45.043Z,9.35
2023-04-08T11:26:12.004Z,9.27
2023-04-08T11:28:39.144Z,9.56
2023-04-08T11:31:07.644Z,9.61
2023-04-08T11:33:35.188Z,9.78
2023-04-08T11:36:04.696Z,9.89
2023-04-08T11:38:31.532Z,9.87
2023-04-08T11:40:59.511Z,10.13
2023-04-08T11:43:30.616Z,9.94
2023-04-08T11:45:59.018Z,10.13
2023-04-08T11:48:25.613Z,10.12
2023-04-08T11:51:12.496Z,10.13
2023-04-08T11:53:39.185Z,10.35
2023-04-08T11:56:23.466Z,10.28
2023-04-08T11:58:51.197Z,10.50
2023-04-08T12:01:18.431Z,10.31
2023-04-08T12:04:15.277Z,10.53
2023-04-08T12:06:43.649Z,10.53
2023-04-08T12:09:10.451Z,10.47
2023-04-08T12:11:37.068Z,10.61
2023-04-08T12:14:03.781Z,10.48
2023-04-08T12:16:32.052Z,10.79
2023-04-08T12:19:00.005Z,10.66
2023-04-08T12:21:27.906Z,10.58
2023-04-08T12:23:54.536Z,10.68
2023-04-08T12:26:21.145Z,10.47
2023-04-08T12:28:47.796Z,10.72
2023-04-08T12:31:14.749Z,10.42
2023-04-08T12:33:41.371Z,10.45
2023-04-08T12:36:08.195Z,10.68
2023-04-08T12:38:34.893Z,10.62
2023-04-08T12:41:01.590Z,10.86
2023-04-08T12:43:28.191Z,10.43
2023-04-08T12:45:56.274Z,10.62
2023-04-08T12:48:22.873Z,10.68
2023-04-08T12:50:49.529Z,10.62
2023-04-08T12:53:17.618Z,10.86
2023-04-08T12:55:44.799Z,10.76
2023-04-08T12:58:12.812Z,10.89
2023-04-08T13:00:41.720Z,10.86
2023-04-08T13:03:09.409Z,10.77
2023-04-08T13:05:43.212Z,10.94
2023-04-08T13:08:12.414Z,10.87
2023-04-08T13:10:39.144Z,10.80
2023-04-08T13:13:07.248Z,10.94
2023-04-08T13:15:33.870Z,10.64
2023-04-08T13:18:00.974Z,10.76
2023-04-08T13:20:28.240Z,10.68
2023-04-08T13:22:54.961Z,10.70
2023-04-08T13:25:22.899Z,10.79
2023-04-08T13:27:49.483Z,10.75
2023-04-08T13:30:16.519Z,10.97
2023-04-08T13:32:43.396Z,10.98
2023-04-08T13:35:10.461Z,11.03
2023-04-08T13:37:38.367Z,11.08
2023-04-08T13:40:07.485Z,10.97
2023-04-08T13:42:34.425Z,11.20
2023-04-08T13:45:02.605Z,11.10
2023-04-08T13:47:29.211Z,11.13
2023-04-08T13:49:55.879Z,11.13
2023-04-08T13:52:22.547Z,11.04
2023-04-08T13:54:49.149Z,11.23
2023-04-08T13:57:16.236Z,11.14
2023-04-08T13:59:44.826Z,11.23
2023-04-08T14:02:13.034Z,11.18
2023-04-08T14:04:40.234Z,11.12
2023-04-08T14:07:07.145Z,11.23
2023-04-08T14:09:33.895Z,10.95
2023-04-08T14:12:01.826Z,11.20
2023-04-08T14:14:29.814Z,11.13
2023-04-08T14:16:57.127Z,10.99
2023-04-08T14:19:25.286Z,11.33
2023-04-08T14:21:51.872Z,11.28
2023-04-08T14:24:18.459Z,11.30
2023-04-08T14:26:45.164Z,11.48
2023-04-08T14:29:11.835Z,11.35
2023-04-08T14:31:39.772Z,11.48
2023-04-08T14:34:07.625Z,11.63
2023-04-08T14:36:34.233Z,11.77
2023-04-08T14:39:02.428Z,11.99
2023-04-08T14:41:29.044Z,11.84
2023-04-08T14:43:55.670Z,11.84
2023-04-08T14:46:22.375Z,11.87
2023-04-08T14:48:49.535Z,11.87
2023-04-08T14:51:16.682Z,12.19
2023-04-08T14:53:43.302Z,12.16
2023-04-08T14:56:10.256Z,12.37
2023-04-08T14:58:37.003Z,12.53
2023-04-08T15:01:03.881Z,12.54
2023-04-08T15:03:31.072Z,12.82
2023-04-08T15:06:00.713Z,12.76
2023-04-08T15:08:28.901Z,12.97
2023-04-08T15:10:55.665Z,13.02
2023-04-08T15:13:23.011Z,12.90
2023-04-08T15:15:49.793Z,13.18
2023-04-08T15:18:16.398Z,12.94
2023-04-08T15:20:43.012Z,13.04
2023-04-08T15:23:10.034Z,12.82
2023-04-08T15:25:36.788Z,12.51
2023-04-08T15:28:03.585Z,12.62
2023-04-08T15:30:35.511Z,12.10
2023-04-08T15:33:05.656Z,12.27
2023-04-08T15:35:33.584Z,12.24
2023-04-08T15:38:01.953Z,12.04
2023-04-08T15:40:28.644Z,12.41
2023-04-08T15:42:56.066Z,12.21
2023-04-08T15:45:23.022Z,12.30
2023-04-08T15:47:49.778Z,12.38
2023-04-08T15:50:17.637Z,12.13
2023-04-08T15:52:44.886Z,12.43
2023-04-08T15:55:11.844Z,12.33
2023-04-08T15:57:38.670Z,12.28
2023-04-08T16:00:11.732Z,12.34
2023-04-08T16:02:38.919Z,12.24
2023-04-08T16:05:06.765Z,12.47
2023-04-08T16:07:33.374Z,12.37
2023-04-08T16:10:00.228Z,12.33
2023-04-08T16:12:28.501Z,12.51
2023-04-08T16:14:55.102Z,12.12
2023-04-08T16:17:22.002Z,12.28
2023-04-08T16:19:50.561Z,12.44
2023-04-08T16:22:17.498Z,12.00
2023-04-08T16:24:44.153Z,12.21
2023-04-08T16:27:10.835Z,12.29
2023-04-08T16:29:37.440Z,11.88
2023-04-08T16:32:04.770Z,11.93
2023-04-08T16:34:31.465Z,12.08
2023-04-08T16:36:59.597Z,11.68
2023-04-08T16:39:27.799Z,11.62
2023-04-08T16:41:54.394Z,11.50
2023-04-08T16:44:21.032Z,10.77
2023-04-08T16:46:47.725Z,10.85
2023-04-08T16:49:16.162Z,10.63
2023-04-08T16:51:43.578Z,10.10
2023-04-08T16:54:10.390Z,10.24
2023-04-08T16:56:37.033Z,9.65
2023-04-08T16:59:03.686Z,9.66
2023-04-08T17:01:30.463Z,9.60
2023-04-08T17:03:57.889Z,9.19
2023-04-08T17:06:24.652Z,9.32
2023-04-08T17:08:52.634Z,9.03
2023-04-08T17:11:21.536Z,9.01
2023-04-08T17:13:49.599Z,9.07
2023-04-08T17:16:18.567Z,8.56
2023-04-08T17:18:45.902Z,8.35
2023-04-08T17:21:14.077Z,8.43
2023-04-08T17:23:40.929Z,7.98
2023-04-08T17:26:10.742Z,7.92
2023-04-08T17:28:38.059Z,7.72
2023-04-08T17:31:04.799Z,7.09
2023-04-08T17:33:31.576Z,7.16
2023-04-08T17:35:58.272Z,6.70
2023-04-08T17:38:24.914Z,6.40
2023-04-08T17:40:51.898Z,6.55
2023-04-08T17:43:19.862Z,5.87
2023-04-08T17:45:47.010Z,5.58
2023-04-08T17:48:14.974Z,5.80
2023-04-08T17:50:41.636Z,5.41
2023-04-08T17:53:08.257Z,5.25
2023-04-08T17:55:35.038Z,5.27
2023-04-08T17:58:02.276Z,4.91
2023-04-08T18:00:29.121Z,4.77
2023-04-08T18:02:58.167Z,4.94
2023-04-08T18:05:24.871Z,4.60
2023-04-08T18:07:51.570Z,4.55
2023-04-08T18:10:18.562Z,4.59
2023-04-08T18:12:45.873Z,4.19
2023-04-08T18:15:14.045Z,4.34
2023-04-08T18:17:40.729Z,4.05
2023-04-08T18:20:07.903Z,3.63
2023-04-08T18:22:34.527Z,3.88
2023-04-08T18:25:01.145Z,3.49
2023-04-08T18:27:29.210Z,3.50
2023-04-08T18:29:55.968Z,3.48
2023-04-08T18:32:22.628Z,3.21
2023-04-08T18:34:53.193Z,3.30
2023-04-08T18:37:21.113Z,3.07
2023-04-08T18:39:48.187Z,2.93
2023-04-08T18:42:16.819Z,3.05
2023-04-08T18:44:44.895Z,2.71
2023-04-08T18:47:11.556Z,2.49
2023-04-08T18:49:42.411Z,2.65
2023-04-08T18:52:10.875Z,2.30
2023-04-08T18:54:38.601Z,2.35
2023-04-08T18:57:06.541Z,2.37
2023-04-08T18:59:33.159Z,1.83
2023-04-08T19:01:59.986Z,1.74
2023-04-08T19:04:27.462Z,1.89
2023-04-08T19:06:54.210Z,1.47
2023-04-08T19:09:20.913Z,1.43
2023-04-08T19:11:48.405Z,1.64
2023-04-08T19:14:17.026Z,1.37
2023-04-08T19:16:43.976Z,1.30
2023-04-08T19:19:10.664Z,1.45
2023-04-08T19:21:37.897Z,1.07
2023-04-08T19:24:06.410Z,1.07
2023-04-08T19:26:33.945Z,1.19
2023-04-08T19:29:01.149Z,1.00
2023-04-08T19:31:28.221Z,0.92
2023-04-08T19:33:54.882Z,1.10
2023-04-08T19:36:23.030Z,0.99
2023-04-08T19:38:49.650Z,0.99
2023-04-08T19:41:16.660Z,1.22
2023-04-08T19:43:43.289Z,1.13
2023-04-08T19:46:09.896Z,1.04
2023-04-08T19:48:36.658Z,1.20
2023-04-08T19:51:03.749Z,1.20
2023-04-08T19:53:30.820Z,1.15
2023-04-08T19:56:03.084Z,1.39
2023-04-08T19:58:31.068Z,1.34
2023-04-08T20:00:57.751Z,1.43
2023-04-08T20:03:25.108Z,1.62
2023-04-08T20:05:52.511Z,1.51
2023-04-08T20:08:19.097Z,1.55
2023-04-08T20:10:46.559Z,1.70
2023-04-08T20:13:14.685Z,1.60
2023-04-08T20:15:41.277Z,1.69
2023-04-08T20:18:07.892Z,1.85
2023-04-08T20:20:36.315Z,1.82
2023-04-08T20:23:04.406Z,1.98
2023-04-08T20:25:31.518Z,2.12
2023-04-08T20:27:58.149Z,2.00
2023-04-08T20:30:24.788Z,2.24
2023-04-08T20:32:51.630Z,2.33
2023-04-08T20:35:19.765Z,2.31
2023-04-08T20:37:46.429Z,2.58
2023-04-08T20:40:16.446Z,2.52
2023-04-08T20:42:44.804Z,2.53
2023-04-08T20:45:11.814Z,2.74
2023-04-08T20:47:39.093Z,2.52
2023-04-08T20:50:06.573Z,2.54
2023-04-08T20:52:34.272Z,2.55
2023-04-08T20:55:00.862Z,2.38
2023-04-08T20:57:28.852Z,2.55
2023-04-08T20:59:56.081Z,2.56
2023-04-08T21:02:22.932Z,2.43
2023-04-08T21:04:50.421Z,2.66
2023-04-08T21:07:17.070Z,2.55
2023-04-08T21:09:47.195Z,2.55
2023-04-08T21:12:15.333Z,2.78
2023-04-08T21:14:42.157Z,2.53
2023-04-08T21:17:09.956Z,2.67
2023-04-08T21:19:37.900Z,2.74
2023-04-08T21:22:05.974Z,2.46
2023-04-08T21:24:32.577Z,2.65
2023-04-08T21:26:59.191Z,2.59
2023-04-08T21:29:25.980Z,2.45
2023-04-08T21:31:52.627Z,2.69
2023-04-08T21:34:20.654Z,2.50
2023-04-08T21:36:47.250Z,2.51
2023-04-08T21:39:13.853Z,2.69
2023-04-08T21:41:41.602Z,2.42
2023-04-08T21:44:09.341Z,2.54
2023-04-08T21:46:37.129Z,2.53
2023-04-08T21:49:03.732Z,2.23
2023-04-08T21:51:30.398Z,2.37
2023-04-08T21:53:57.012Z,2.14
2023-04-08T21:56:24.589Z,1.92
2023-04-08T21:58:51.497Z,2.17
2023-04-08T22:01:18.310Z,1.89
2023-04-08T22:03:45.062Z,1.85
2023-04-08T22:06:19.142Z,2.06
2023-04-08T22:08:52.469Z,1.91
2023-04-08T22:11:19.342Z,1.99
2023-04-08T22:13:45.933Z,2.13
2023-04-08T22:16:13.736Z,1.96
2023-04-08T22:18:41.673Z,1.94
2023-04-08T22:21:08.300Z,2.00
2023-04-08T22:23:35.843Z,1.69
2023-04-08T22:26:02.567Z,1.67
2023-04-08T22:28:29.178Z,1.66
2023-04-08T22:30:55.921Z,1.33
2023-04-08T22:33:22.639Z,1.38
2023-04-08T22:35:49.278Z,1.52
2023-04-08T22:38:16.099Z,1.19
2023-04-08T22:40:42.692Z,1.19
2023-04-08T22:43:10.737Z,1.32
2023-04-08T22:45:37.638Z,1.01
2023-04-08T22:48:04.389Z,1.11
2023-04-08T22:50:31.447Z,1.31
2023-04-08T22:52:58.040Z,1.14
2023-04-08T22:55:24.704Z,1.17
2023-04-08T22:57:51.943Z,1.22
2023-04-08T23:00:18.784Z,0.97
2023-04-08T23:02:46.931Z,1.03
2023-04-08T23:05:14.846Z,1.12
2023-04-08T23:07:41.447Z,0.82
2023-04-08T23:10:09.844Z,0.68
2023-04-08T23:12:36.461Z,0.81
2023-04-08T23:15:04.692Z,0.42
2023-04-08T23:17:31.367Z,0.22
2023-04-08T23:19:57.997Z,0.38
2023-04-08T23:22:24.684Z,0.34
2023-04-08T23:24:51.313Z,0.18
2023-04-08T23:27:18.044Z,0.33
2023-04-08T23:29:46.143Z,0.10
2023-04-08T23:32:12.819Z,-0.11
2023-04-08T23:34:39.451Z,0.09
2023-04-08T23:37:06.056Z,-0.06
2023-04-08T23:39:32.732Z,-0.16
2023-04-08T23:41:59.433Z,0.04
2023-04-08T23:44:27.647Z,-0.15
2023-04-08T23:46:54.439Z,-0.19
2023-04-08T23:49:22.549Z,-0.02
2023-04-08T23:51:50.534Z,-0.27
2023-04-08T23:54:17.165Z,-0.34
2023-04-08T23:56:45.298Z,-0.17
2023-04-08T23:59:13.175Z,-0.35
